Time;durP1;ratioP1;P1;durP2;ratioP2;P2;SDS_P1;SDS_P2;PMS_P1;PMS_P2;Temp;Humidity;BMP_temperature;BMP_pressure;BME280_temperature;BME280_humidity;BME280_pressure;Samples;Min_cycle;Max_cycle;Signal;HPM_P1;HPM_P2
2023/01/13 00:01:20;;;;;;;0.38;0.25;;;;;;;9.20;100.00;99593.38;4962372;28;20493;-76
2023/01/13 00:03:47;;;;;;;0.52;0.35;;;;;;;9.22;100.00;99601.22;4963547;28;20504;-77
2023/01/13 00:06:21;;;;;;;0.52;0.40;;;;;;;9.29;100.00;99583.66;4964618;28;20072;-78
2023/01/13 00:08:49;;;;;;;0.35;0.35;;;;;;;9.30;100.00;99590.59;4977575;28;20105;-77
2023/01/13 00:11:17;;;;;;;0.20;0.20;;;;;;;9.27;100.00;99581.09;4980252;28;20881;-77
2023/01/13 00:13:43;;;;;;;0.65;0.47;;;;;;;9.26;100.00;99580.22;4978867;28;20861;-74
2023/01/13 00:16:14;;;;;;;0.45;0.45;;;;;;;9.31;100.00;99589.69;4979755;28;20038;-78
2023/01/13 00:18:41;;;;;;;0.50;0.40;;;;;;;9.35;100.00;99578.31;4973374;28;20058;-80
2023/01/13 00:21:13;;;;;;;0.30;0.30;;;;;;;9.33;100.00;99575.72;4995043;28;20051;-74
2023/01/13 00:23:40;;;;;;;1.50;0.60;;;;;;;9.40;100.00;99572.09;4979473;28;20064;-78
2023/01/13 00:26:12;;;;;;;0.55;0.38;;;;;;;9.55;100.00;99578.72;4978137;28;20125;-75
2023/01/13 00:28:39;;;;;;;0.60;0.60;;;;;;;9.51;100.00;99565.78;4978743;28;20053;-81
2023/01/13 00:31:13;;;;;;;0.68;0.68;;;;;;;9.47;100.00;99569.34;4992411;28;20057;-76
2023/01/13 00:33:40;;;;;;;0.60;0.60;;;;;;;9.43;100.00;99551.13;4991059;28;20042;-80
2023/01/13 00:36:11;;;;;;;0.77;0.40;;;;;;;9.44;100.00;99550.22;4978227;28;20054;-76
2023/01/13 00:38:38;;;;;;;0.60;0.60;;;;;;;9.36;100.00;99541.72;4991745;28;20050;-76
2023/01/13 00:41:11;;;;;;;0.57;0.57;;;;;;;9.26;100.00;99545.41;4977681;28;20042;-77
2023/01/13 00:43:37;;;;;;;0.20;0.20;;;;;;;9.29;100.00;99537.50;4975520;28;20045;-78
2023/01/13 00:46:07;;;;;;;0.20;0.20;;;;;;;9.22;100.00;99528.09;4963282;28;21087;-79
2023/01/13 00:48:35;;;;;;;0.30;0.30;;;;;;;9.16;100.00;99526.44;4979463;28;20172;-79
2023/01/13 00:51:06;;;;;;;0.20;0.20;;;;;;;9.18;100.00;99529.06;4977675;28;20046;-75
2023/01/13 00:53:36;;;;;;;1.10;0.22;;;;;;;9.16;100.00;99518.63;4978094;28;20035;-78
2023/01/13 00:56:19;;;;;;;0.20;0.20;;;;;;;9.19;100.00;99522.91;4975856;28;20945;-77
2023/01/13 00:58:47;;;;;;;0.22;0.10;;;;;;;9.18;100.00;99519.47;4975687;28;21337;-75
2023/01/13 01:01:21;;;;;;;0.20;0.10;;;;;;;9.18;100.00;99532.50;4980992;28;20042;-79
2023/01/13 01:03:48;;;;;;;;;;;;;;;9.23;100.00;99537.63;4978813;28;20958;-81
2023/01/13 01:06:23;;;;;;;0.47;0.43;;;;;;;9.16;100.00;99523.84;4993897;28;19934;-78
2023/01/13 01:08:50;;;;;;;0.10;0.10;;;;;;;9.20;100.00;99529.88;4973523;28;20441;-77
2023/01/13 01:11:24;;;;;;;0.63;0.10;;;;;;;9.25;100.00;99538.47;4978092;28;20042;-78
2023/01/13 01:13:51;;;;;;;0.08;0.08;;;;;;;9.32;100.00;99534.84;4976794;28;20055;-76
2023/01/13 01:16:21;;;;;;;0.20;0.20;;;;;;;9.37;100.00;99527.75;4976495;28;21525;-76
2023/01/13 01:18:50;;;;;;;0.60;0.20;;;;;;;9.25;100.00;99535.84;4975409;28;20835;-80
2023/01/13 01:21:18;;;;;;;2.70;0.40;;;;;;;9.06;100.00;99528.41;4961089;28;20128;-80
2023/01/13 01:23:45;;;;;;;0.30;0.30;;;;;;;8.87;100.00;99524.47;4974505;28;20042;-81
2023/01/13 01:26:14;;;;;;;0.30;0.10;;;;;;;8.81;100.00;99538.47;4979972;28;20045;-77
2023/01/13 01:28:42;;;;;;;0.98;0.20;;;;;;;8.83;100.00;99541.06;4961071;28;20793;-78
2023/01/13 01:31:27;;;;;;;0.20;0.20;;;;;;;8.74;100.00;99542.97;4973826;28;21105;-78
2023/01/13 01:33:54;;;;;;;0.68;0.40;;;;;;;8.81;100.00;99540.22;4975117;28;20046;-78
2023/01/13 01:36:23;;;;;;;0.13;0.13;;;;;;;8.86;100.00;99548.84;4975544;28;20462;-77
2023/01/13 01:38:50;;;;;;;0.10;0.10;;;;;;;8.82;100.00;99560.22;4974526;28;20870;-76
2023/01/13 01:41:20;;;;;;;0.20;0.10;;;;;;;8.75;100.00;99552.50;4963816;28;20043;-81
2023/01/13 01:43:58;;;;;;;0.20;0.20;;;;;;;8.73;100.00;99558.66;4990216;28;20042;-76
2023/01/13 01:46:27;;;;;;;0.15;0.15;;;;;;;8.73;100.00;99543.00;4992730;28;20050;-76
2023/01/13 01:49:01;;;;;;;0.10;0.10;;;;;;;8.71;100.00;99536.97;4973259;28;20054;-77
2023/01/13 01:51:35;;;;;;;0.20;0.20;;;;;;;8.71;100.00;99539.56;4975326;28;21181;-78
2023/01/13 01:54:05;;;;;;;0.10;0.10;;;;;;;8.76;100.00;99530.75;4976812;28;20926;-76
2023/01/13 01:56:33;;;;;;;0.20;0.20;;;;;;;8.81;100.00;99541.09;4981114;28;20050;-76
2023/01/13 01:59:00;;;;;;;0.10;0.10;;;;;;;8.88;100.00;99532.25;4976346;28;20052;-78
2023/01/13 02:01:27;;;;;;;1.40;0.20;;;;;;;8.92;100.00;99520.00;4980841;28;20043;-76
2023/01/13 02:04:01;;;;;;;0.25;0.25;;;;;;;8.91;100.00;99526.97;4978652;28;20150;-75
2023/01/13 02:06:30;;;;;;;0.28;0.20;;;;;;;8.89;100.00;99538.31;4983046;28;20490;-78
2023/01/13 02:08:58;;;;;;;1.65;0.30;;;;;;;8.94;100.00;99526.91;4978949;28;20548;-78
2023/01/13 02:14:29;;;;;;;0.35;0.35;;;;;;;8.81;100.00;99525.44;4983082;28;20100;-76
2023/01/13 02:17:20;;;;;;;0.63;0.32;;;;;;;8.80;100.00;99531.56;4968377;28;20046;-78
2023/01/13 02:20:29;;;;;;;0.90;0.50;;;;;;;8.75;100.00;99526.41;4962979;28;20058;-76
2023/01/13 02:26:48;;;;;;;2.47;0.45;;;;;;;8.71;100.00;99526.53;4956179;28;20535;-77
2023/01/13 02:32:59;;;;;;;2.08;0.45;;;;;;;8.50;100.00;99533.88;4981672;28;20050;-75
2023/01/13 02:35:42;;;;;;;1.20;0.80;;;;;;;8.59;100.00;99528.47;4981005;28;20057;-78
2023/01/13 02:38:12;;;;;;;1.55;0.73;;;;;;;8.44;100.00;99534.78;4981871;28;20276;-75
2023/01/13 02:40:55;;;;;;;1.10;0.52;;;;;;;8.49;100.00;99547.78;4976863;28;20079;-76
2023/01/13 02:46:46;;;;;;;7.25;0.60;;;;;;;8.31;100.00;99558.53;4983924;28;20038;-75
2023/01/13 02:49:24;;;;;;;4.15;0.70;;;;;;;8.33;100.00;99560.22;4977923;28;20047;-78
2023/01/13 02:52:01;;;;;;;4.82;1.15;;;;;;;8.42;100.00;99553.94;4981228;28;20121;-75
2023/01/13 02:54:30;;;;;;;2.70;0.90;;;;;;;8.40;100.00;99568.78;4983544;28;20042;-76
2023/01/13 02:57:55;;;;;;;3.53;1.13;;;;;;;8.33;100.00;99557.59;4986638;28;20053;-76
2023/01/13 03:00:40;;;;;;;1.02;1.02;;;;;;;8.26;100.00;99569.84;4976892;28;20107;-78
2023/01/13 03:03:13;;;;;;;4.43;1.13;;;;;;;8.24;100.00;99556.00;4996091;28;20054;-77
2023/01/13 03:05:44;;;;;;;3.97;1.25;;;;;;;8.30;100.00;99575.88;4982448;28;20849;-78
2023/01/13 03:08:41;;;;;;;5.13;1.10;;;;;;;8.35;99.57;99560.19;4961501;28;20060;-76
2023/01/13 03:11:17;;;;;;;11.77;2.60;;;;;;;8.31;98.65;99584.59;4976873;28;20034;-77
2023/01/13 03:14:17;;;;;;;4.43;1.90;;;;;;;8.17;98.75;99584.81;4994714;28;20442;-77
2023/01/13 03:17:15;;;;;;;8.98;1.60;;;;;;;8.10;98.04;99591.88;4986692;28;20053;-74
2023/01/13 03:19:57;;;;;;;3.40;0.98;;;;;;;8.14;97.16;99577.91;4982325;28;20046;-79
2023/01/13 03:22:35;;;;;;;5.32;1.20;;;;;;;8.09;96.80;99571.91;4993612;28;20038;-78
2023/01/13 03:25:15;;;;;;;8.70;1.73;;;;;;;8.14;93.52;99567.47;4982149;28;20046;-77
2023/01/13 03:27:53;;;;;;;6.10;2.33;;;;;;;8.23;91.41;99569.94;4988432;28;20113;-76
2023/01/13 03:30:28;;;;;;;6.75;2.53;;;;;;;8.20;91.46;99589.97;4990440;28;20053;-77
2023/01/13 03:33:13;;;;;;;6.82;1.52;;;;;;;8.34;88.38;99587.97;4992187;28;20138;-75
2023/01/13 03:35:44;;;;;;;7.80;2.53;;;;;;;8.36;87.32;99580.16;5003416;28;20042;-74
2023/01/13 03:38:18;;;;;;;6.55;1.88;;;;;;;8.34;87.32;99608.00;4969603;28;20054;-74
2023/01/13 03:40:54;;;;;;;4.15;1.17;;;;;;;8.21;88.19;99604.72;4999881;28;20061;-76
2023/01/13 03:46:23;;;;;;;4.40;1.65;;;;;;;8.11;88.30;99597.06;4993120;28;20112;-77
2023/01/13 03:48:55;;;;;;;7.25;2.13;;;;;;;8.09;87.26;99601.41;4984731;28;20065;-78
2023/01/13 03:51:25;;;;;;;12.18;4.43;;;;;;;8.13;86.30;99585.75;5006010;28;20050;-79
2023/01/13 03:53:59;;;;;;;8.30;1.90;;;;;;;8.04;85.97;99591.97;4982856;28;20047;-76
2023/01/13 03:56:42;;;;;;;8.20;2.17;;;;;;;7.92;86.25;99596.47;4996190;28;20050;-76
2023/01/13 03:59:19;;;;;;;5.53;2.35;;;;;;;7.85;86.04;99591.38;4979409;28;20030;-77
2023/01/13 04:01:57;;;;;;;5.07;1.50;;;;;;;7.74;86.82;99587.22;4978350;28;20437;-75
2023/01/13 04:04:41;;;;;;;3.85;1.45;;;;;;;7.63;87.34;99602.13;4998203;28;20050;-74
2023/01/13 04:07:32;;;;;;;11.75;2.03;;;;;;;7.49;88.17;99599.69;4984936;28;20054;-76
2023/01/13 04:10:03;;;;;;;15.48;4.30;;;;;;;7.49;88.39;99596.25;4981768;28;20050;-79
2023/01/13 04:15:13;;;;;;;10.15;1.55;;;;;;;7.39;89.15;99588.56;4979028;28;20051;-79
2023/01/13 04:17:40;;;;;;;5.35;1.55;;;;;;;7.25;90.18;99587.88;4981291;28;20457;-77
2023/01/13 04:20:07;;;;;;;13.57;1.92;;;;;;;7.18;91.09;99594.88;4978696;28;20047;-74
2023/01/13 04:22:33;;;;;;;5.65;1.52;;;;;;;7.20;91.68;99605.28;4980252;28;20041;-79
2023/01/13 04:25:00;;;;;;;7.30;1.52;;;;;;;7.23;91.81;99606.09;4967239;28;20062;-79
2023/01/13 04:27:26;;;;;;;9.30;1.70;;;;;;;7.26;91.61;99598.25;4982305;28;20054;-75
2023/01/13 04:29:53;;;;;;;12.63;1.88;;;;;;;7.15;92.84;99600.13;4978127;28;20042;-79
2023/01/13 04:32:19;;;;;;;5.43;1.90;;;;;;;7.23;92.33;99600.03;4981845;28;20057;-81
2023/01/13 04:34:45;;;;;;;5.00;1.50;;;;;;;7.25;92.38;99606.09;4963326;28;20049;-77
2023/01/13 04:37:12;;;;;;;8.35;2.50;;;;;;;7.31;92.45;99607.75;4981305;28;20045;-76
2023/01/13 04:39:38;;;;;;;5.72;1.77;;;;;;;7.41;92.01;99604.16;4960130;28;20052;-77
2023/01/13 04:42:05;;;;;;;13.93;2.13;;;;;;;7.47;90.92;99593.66;4979941;28;20053;-77
2023/01/13 04:44:34;;;;;;;6.40;1.90;;;;;;;7.56;89.99;99593.53;4976132;28;20116;-79
2023/01/13 04:47:02;;;;;;;7.95;1.90;;;;;;;7.44;91.21;99599.78;4977331;28;20054;-80
2023/01/13 04:49:28;;;;;;;6.20;1.80;;;;;;;7.33;92.30;99604.25;4963189;28;20046;-76
2023/01/13 04:51:55;;;;;;;6.90;1.98;;;;;;;7.18;93.11;99594.00;4975352;28;20645;-76
2023/01/13 04:54:21;;;;;;;8.02;1.67;;;;;;;7.07;94.00;99588.94;4991769;28;20077;-80
2023/01/13 04:56:48;;;;;;;12.02;2.40;;;;;;;7.04;94.95;99586.38;4981397;28;20038;-79
2023/01/13 04:59:15;;;;;;;6.43;2.05;;;;;;;6.97;95.24;99584.72;4976678;28;20046;-76
2023/01/13 05:01:41;;;;;;;10.10;2.25;;;;;;;6.98;94.99;99581.25;4992303;28;20030;-79
2023/01/13 05:04:08;;;;;;;10.85;3.38;;;;;;;7.14;93.86;99587.13;4980347;28;20034;-76
2023/01/13 05:06:35;;;;;;;10.23;2.50;;;;;;;7.27;92.28;99581.75;4966313;28;20045;-77
2023/01/13 05:09:01;;;;;;;11.02;1.95;;;;;;;7.33;91.76;99585.16;4973575;28;20058;-79
2023/01/13 05:17:02;;;;;;;;;;;;;;;7.08;93.36;99586.31;4983200;28;20395;-74
2023/01/13 05:19:39;;;;;;;21.40;3.10;;;;;;;7.02;94.71;99582.94;4960450;28;19976;-82
2023/01/13 05:27:35;;;;;;;7.13;2.00;;;;;;;6.90;96.13;99591.75;4979763;28;20048;-74
2023/01/13 05:30:01;;;;;;;10.07;1.60;;;;;;;6.86;96.30;99601.31;4990039;28;20043;-81
2023/01/13 05:32:28;;;;;;;14.55;2.55;;;;;;;6.84;97.12;99599.59;4986248;28;20137;-78
2023/01/13 05:35:02;;;;;;;;;;;;;;;6.85;97.16;99596.97;4980660;28;20143;-75
2023/01/13 05:37:28;;;;;;;6.90;1.83;;;;;;;6.79;97.10;99591.84;4980147;28;19925;-79
2023/01/13 05:45:34;;;;;;;14.45;2.63;;;;;;;6.42;98.98;99561.03;4915350;29;20048;-75
2023/01/13 05:48:01;;;;;;;10.05;2.35;;;;;;;6.39;99.54;99561.91;4943911;28;20210;-78
2023/01/13 05:50:27;;;;;;;7.43;3.15;;;;;;;6.49;98.15;99559.22;4967632;28;20117;-78
2023/01/13 05:52:53;;;;;;;8.73;2.45;;;;;;;6.59;97.49;99559.09;4983543;28;20057;-77
2023/01/13 05:55:20;;;;;;;14.23;2.65;;;;;;;6.69;96.62;99564.19;4979322;28;20038;-75
2023/01/13 05:57:46;;;;;;;12.10;2.35;;;;;;;6.78;95.67;99566.72;4974262;28;20109;-80
2023/01/13 06:00:13;;;;;;;10.88;2.72;;;;;;;6.76;96.13;99573.69;4971876;28;20050;-77
2023/01/13 06:02:40;;;;;;;13.70;3.92;;;;;;;6.76;96.33;99577.13;4974588;28;20056;-76
2023/01/13 06:05:07;;;;;;;13.00;2.45;;;;;;;6.92;95.11;99569.16;4973512;28;20047;-77
2023/01/13 06:07:33;;;;;;;16.27;4.88;;;;;;;7.09;93.41;99562.03;4979647;28;20077;-77
2023/01/13 06:10:00;;;;;;;13.85;3.60;;;;;;;7.20;92.35;99555.84;4978384;28;20046;-75
2023/01/13 06:12:26;;;;;;;8.98;2.55;;;;;;;7.26;91.03;99554.00;4973518;28;20038;-75
2023/01/13 06:14:53;;;;;;;12.93;2.85;;;;;;;7.32;90.40;99560.00;4979320;28;20065;-77
2023/01/13 06:17:19;;;;;;;8.68;2.88;;;;;;;7.32;90.54;99567.81;4976887;28;21222;-78
2023/01/13 06:19:46;;;;;;;17.13;4.13;;;;;;;7.33;90.82;99569.56;4979609;28;20043;-75
2023/01/13 06:22:19;;;;;;;6.97;2.35;;;;;;;7.43;90.07;99571.13;4983541;28;20038;-76
2023/01/13 06:24:46;;;;;;;18.67;3.10;;;;;;;7.50;89.73;99582.34;4977900;28;20046;-78
2023/01/13 06:27:13;;;;;;;10.27;3.90;;;;;;;7.55;89.52;99570.13;4993778;28;20038;-76
2023/01/13 06:29:40;;;;;;;9.68;3.08;;;;;;;7.59;89.48;99575.25;4981569;28;20034;-80
2023/01/13 06:32:14;;;;;;;11.30;2.47;;;;;;;7.64;88.97;99579.53;4989450;28;20042;-76
2023/01/13 06:34:46;;;;;;;17.05;3.05;;;;;;;7.71;89.01;99579.41;4982050;28;20055;-81
2023/01/13 06:37:16;;;;;;;12.68;3.63;;;;;;;7.76;88.62;99569.78;4959951;28;20057;-75
2023/01/13 06:39:43;;;;;;;6.10;2.05;;;;;;;7.84;87.31;99561.88;4975294;28;20042;-78
2023/01/13 06:44:59;;;;;;;10.40;2.78;;;;;;;7.89;87.33;99560.03;4928798;28;20047;-83
2023/01/13 06:47:25;;;;;;;14.75;2.58;;;;;;;7.77;88.81;99568.91;4979434;28;20039;-77
2023/01/13 06:49:52;;;;;;;8.05;2.08;;;;;;;7.63;89.07;99570.88;4964651;28;20047;-76
2023/01/13 06:52:18;;;;;;;6.57;2.10;;;;;;;7.45;90.34;99566.78;4986763;28;20050;-78
2023/01/13 06:54:45;;;;;;;6.85;1.98;;;;;;;7.37;91.32;99563.41;4983596;28;20058;-76
2023/01/13 06:57:11;;;;;;;9.98;3.13;;;;;;;7.30;92.20;99557.44;4982244;28;20041;-80
2023/01/13 06:59:38;;;;;;;12.55;3.08;;;;;;;7.30;92.61;99557.44;4966274;28;20054;-76
2023/01/13 07:02:04;;;;;;;12.85;2.95;;;;;;;7.31;92.16;99564.34;4990108;28;20034;-81
2023/01/13 07:04:31;;;;;;;10.15;3.20;;;;;;;7.34;91.37;99582.53;4960609;28;20050;-78
2023/01/13 07:06:57;;;;;;;6.18;1.60;;;;;;;7.32;91.80;99583.44;4981382;28;20097;-77
2023/01/13 07:09:24;;;;;;;6.85;1.55;;;;;;;7.33;91.22;99586.03;4978970;28;20038;-75
2023/01/13 07:11:51;;;;;;;4.38;1.95;;;;;;;7.36;91.30;99600.75;4989290;28;20047;-78
2023/01/13 07:17:03;;;;;;;10.18;1.85;;;;;;;7.42;89.17;99593.72;4971895;28;20103;-77
2023/01/13 07:19:29;;;;;;;7.00;1.50;;;;;;;7.41;89.08;99606.75;4962694;28;20585;-78
2023/01/13 07:21:56;;;;;;;3.92;1.65;;;;;;;7.38;89.99;99599.84;4992920;28;20034;-82
2023/01/13 07:24:22;;;;;;;6.13;1.80;;;;;;;7.39;89.12;99604.19;4987476;28;20129;-77
2023/01/13 07:26:51;;;;;;;11.93;1.73;;;;;;;7.45;88.40;99611.03;4989017;28;20084;-76
2023/01/13 07:29:17;;;;;;;5.13;1.90;;;;;;;7.52;87.35;99611.81;4987383;28;20049;-75
2023/01/13 07:31:44;;;;;;;6.00;1.52;;;;;;;7.48;87.64;99608.38;4983605;28;20050;-78
2023/01/13 07:34:10;;;;;;;10.88;1.90;;;;;;;7.42;87.66;99621.50;4964354;28;20062;-77
2023/01/13 07:36:38;;;;;;;8.98;1.70;;;;;;;7.39;88.10;99613.72;4965285;28;20492;-75
2023/01/13 07:39:05;;;;;;;7.43;1.60;;;;;;;7.43;87.15;99616.28;4993533;28;20125;-78
2023/01/13 07:44:15;;;;;;;;;;;;;;;7.57;85.61;99625.63;4977923;28;20123;-78
2023/01/13 07:46:43;;;;;;;2.78;1.02;;;;;;;7.58;84.91;99611.72;4980809;28;19929;-79
2023/01/13 07:49:09;;;;;;;4.20;1.25;;;;;;;7.54;85.22;99613.50;4979565;28;20042;-77
2023/01/13 07:51:39;;;;;;;2.97;1.83;;;;;;;7.51;85.53;99604.88;4993165;28;20488;-78
2023/01/13 07:54:06;;;;;;;5.35;1.38;;;;;;;7.55;84.36;99628.25;4977962;28;20042;-77
2023/01/13 07:56:33;;;;;;;7.47;1.20;;;;;;;7.53;84.37;99614.38;4975980;28;20872;-79
2023/01/13 07:59:00;;;;;;;7.70;1.50;;;;;;;7.55;84.36;99625.66;4972772;28;20062;-81
2023/01/13 08:01:28;;;;;;;8.25;1.30;;;;;;;7.54;84.37;99617.88;4967376;28;20047;-79
2023/01/13 08:03:57;;;;;;;5.03;1.23;;;;;;;7.54;84.20;99610.91;4980490;28;20046;-77
2023/01/13 08:06:23;;;;;;;9.75;2.22;;;;;;;7.50;84.23;99617.03;4980970;28;20125;-76
2023/01/13 08:08:51;;;;;;;7.57;2.40;;;;;;;7.43;84.49;99618.00;4981690;28;20070;-76
2023/01/13 08:11:17;;;;;;;5.78;1.23;;;;;;;7.49;83.67;99628.34;4987225;28;20050;-78
2023/01/13 08:13:44;;;;;;;6.93;1.52;;;;;;;7.50;83.65;99626.63;4984955;28;20061;-77
2023/01/13 08:16:14;;;;;;;6.90;1.55;;;;;;;7.45;83.63;99621.44;4983205;28;20041;-78
2023/01/13 08:18:41;;;;;;;5.95;1.23;;;;;;;7.34;84.50;99619.00;4986470;28;20125;-78
2023/01/13 08:21:14;;;;;;;7.00;1.80;;;;;;;7.33;84.78;99626.81;4978060;28;20070;-78
2023/01/13 08:23:43;;;;;;;5.22;1.40;;;;;;;7.38;84.87;99627.59;4978699;28;20049;-75
2023/01/13 08:26:16;;;;;;;4.88;1.30;;;;;;;7.52;83.87;99619.63;4994657;28;20034;-75
2023/01/13 08:28:43;;;;;;;4.78;2.33;;;;;;;7.58;83.88;99635.19;4973512;28;20035;-79
2023/01/13 08:31:14;;;;;;;7.38;1.63;;;;;;;7.63;84.10;99638.59;4981236;28;20034;-76
2023/01/13 08:33:41;;;;;;;10.13;2.28;;;;;;;7.61;84.23;99640.34;4978264;28;20046;-75
2023/01/13 08:36:11;;;;;;;9.38;1.70;;;;;;;7.58;84.85;99645.59;4982068;28;20046;-75
2023/01/13 08:38:38;;;;;;;9.00;1.70;;;;;;;7.62;83.42;99618.63;4963599;28;20487;-76
2023/01/13 08:41:11;;;;;;;4.70;2.13;;;;;;;7.69;83.37;99658.47;4992946;28;20766;-75
2023/01/13 08:43:38;;;;;;;6.43;1.75;;;;;;;7.65;82.94;99649.81;4995485;28;20105;-76
2023/01/13 08:46:04;;;;;;;7.35;1.60;;;;;;;7.49;83.87;99661.34;4978934;28;20049;-75
2023/01/13 08:48:31;;;;;;;9.18;1.48;;;;;;;7.42;84.17;99645.78;4964332;28;20125;-80
2023/01/13 08:51:09;;;;;;;4.55;1.45;;;;;;;7.28;85.65;99651.16;4978448;28;20037;-76
2023/01/13 08:53:36;;;;;;;6.78;1.63;;;;;;;7.44;84.27;99658.78;4979825;28;20043;-80
2023/01/13 08:56:07;;;;;;;6.53;1.75;;;;;;;7.51;83.89;99659.56;4980021;28;20046;-77
2023/01/13 08:58:33;;;;;;;8.25;1.35;;;;;;;7.66;82.16;99642.88;4970007;28;20046;-79
2023/01/13 09:01:05;;;;;;;7.13;1.77;;;;;;;7.73;82.22;99658.41;4959098;28;20047;-80
2023/01/13 09:03:32;;;;;;;8.93;2.08;;;;;;;7.74;82.03;99657.53;4978375;28;20072;-78
2023/01/13 09:05:58;;;;;;;8.90;2.35;;;;;;;7.72;82.34;99643.66;4965843;28;20693;-78
2023/01/13 09:08:25;;;;;;;6.25;1.35;;;;;;;7.76;81.59;99660.13;4971109;28;20108;-79
2023/01/13 09:10:51;;;;;;;6.68;1.73;;;;;;;7.77;80.86;99644.47;4977995;28;20073;-79
2023/01/13 09:13:19;;;;;;;6.28;1.45;;;;;;;7.82;80.10;99660.03;4973823;28;20184;-77
2023/01/13 09:15:48;;;;;;;9.48;2.33;;;;;;;7.88;79.25;99656.50;4980241;28;20042;-75
2023/01/13 09:18:14;;;;;;;5.80;2.42;;;;;;;7.85;79.85;99662.59;4995841;28;20038;-77
2023/01/13 09:20:41;;;;;;;9.10;1.88;;;;;;;7.92;79.11;99665.97;4987285;28;20048;-76
2023/01/13 09:23:08;;;;;;;12.38;1.67;;;;;;;8.04;78.16;99670.16;4984834;28;20534;-75
2023/01/13 09:25:35;;;;;;;8.80;2.65;;;;;;;8.07;77.19;99663.16;4984715;28;20572;-75
2023/01/13 09:28:03;;;;;;;7.65;1.67;;;;;;;8.02;77.24;99662.38;4985317;28;20042;-76
2023/01/13 09:30:30;;;;;;;10.60;2.38;;;;;;;8.07;77.03;99670.09;4979202;28;20039;-77
2023/01/13 09:35:44;;;;;;;6.18;1.50;;;;;;;8.06;76.77;99668.41;4979426;28;20030;-78
2023/01/13 09:38:10;;;;;;;8.48;2.10;;;;;;;8.05;77.02;99683.16;4975357;28;20049;-76
2023/01/13 09:40:40;;;;;;;11.77;1.77;;;;;;;8.08;76.62;99684.84;4964479;28;20497;-79
2023/01/13 09:49:02;;;;;;;9.75;1.73;;;;;;;8.23;75.06;99679.44;4968545;28;20045;-79
2023/01/13 09:51:39;;;;;;;11.25;2.22;;;;;;;8.25;74.39;99680.28;4982989;28;20050;-75
2023/01/13 09:54:18;;;;;;;8.07;1.42;;;;;;;8.17;75.25;99679.50;4982495;28;20062;-79
2023/01/13 09:56:45;;;;;;;6.72;1.73;;;;;;;8.17;74.66;99689.09;4982675;28;20149;-77
2023/01/13 09:59:12;;;;;;;6.28;1.85;;;;;;;8.17;74.55;99694.31;4978613;28;20046;-80
2023/01/13 10:02:12;;;;;;;6.47;1.75;;;;;;;8.21;74.31;99704.69;4978447;28;20039;-80
2023/01/13 10:04:39;;;;;;;6.78;2.22;;;;;;;8.23;74.50;99687.25;4975871;28;20054;-79
2023/01/13 10:07:14;;;;;;;9.45;1.75;;;;;;;8.28;74.01;99687.19;4980256;28;20089;-77
2023/01/13 10:09:52;;;;;;;5.25;1.55;;;;;;;8.25;74.48;99676.78;4977729;28;20050;-81
2023/01/13 10:15:21;;;;;;;8.18;1.75;;;;;;;8.24;74.09;99678.53;4979777;28;20046;-77
2023/01/13 10:18:00;;;;;;;9.18;2.25;;;;;;;8.26;73.90;99679.38;4975779;28;20050;-77
2023/01/13 10:20:49;;;;;;;6.25;1.50;;;;;;;8.24;74.46;99682.91;4965964;28;20043;-75
2023/01/13 10:23:39;;;;;;;12.27;2.45;;;;;;;8.20;74.80;99684.69;4979769;28;20042;-77
2023/01/13 10:26:25;;;;;;;6.75;1.88;;;;;;;8.21;74.48;99695.97;4984510;28;20053;-77
2023/01/13 10:28:56;;;;;;;4.65;1.75;;;;;;;8.24;74.26;99685.53;4980827;28;20046;-78
2023/01/13 10:31:24;;;;;;;11.68;1.58;;;;;;;8.20;74.14;99679.47;4986854;28;20042;-77
2023/01/13 10:34:02;;;;;;;13.95;3.35;;;;;;;8.19;74.01;99671.69;4988896;28;20057;-77
2023/01/13 10:36:29;;;;;;;8.60;2.15;;;;;;;8.24;73.73;99660.28;4965094;28;20066;-76
2023/01/13 10:39:25;;;;;;;8.27;1.27;;;;;;;8.31;72.46;99679.31;4986341;28;20045;-78
2023/01/13 10:42:21;;;;;;;9.90;2.05;;;;;;;8.25;72.87;99667.25;4988078;28;20026;-76
2023/01/13 10:44:59;;;;;;;4.15;1.27;;;;;;;8.23;73.04;99676.81;4977924;28;20058;-78
2023/01/13 10:47:34;;;;;;;3.67;1.50;;;;;;;8.24;72.11;99662.91;4986769;28;20046;-77
2023/01/13 10:50:06;;;;;;;8.07;2.03;;;;;;;8.26;71.91;99666.34;4980994;28;20046;-78
2023/01/13 10:52:38;;;;;;;7.22;2.05;;;;;;;8.23;72.41;99665.53;4983017;28;20097;-80
2023/01/13 10:55:29;;;;;;;7.82;1.73;;;;;;;8.28;70.94;99675.00;4982155;28;20085;-79
2023/01/13 10:57:56;;;;;;;9.60;2.20;;;;;;;8.31;70.19;99671.50;4981736;28;20591;-79
2023/01/13 11:00:34;;;;;;;6.95;1.50;;;;;;;8.39;70.01;99669.63;4984164;28;20038;-79
2023/01/13 11:03:20;;;;;;;7.03;1.15;;;;;;;8.38;69.49;99667.03;4970629;28;20820;-79
2023/01/13 11:05:56;;;;;;;3.85;2.13;;;;;;;8.38;69.37;99664.44;4978210;28;20132;-77
2023/01/13 11:08:30;;;;;;;6.07;1.45;;;;;;;8.30;69.85;99679.34;4962884;28;20038;-78
2023/01/13 11:10:59;;;;;;;5.43;1.10;;;;;;;8.31;70.42;99679.31;4983768;28;20124;-80
2023/01/13 11:14:31;;;;;;;11.05;2.15;;;;;;;8.19;71.72;99676.91;4983998;28;20046;-79
2023/01/13 11:16:27;;;;;;;10.35;2.85;;;;;;;8.16;72.59;99685.63;4990012;28;20049;-80
2023/01/13 11:19:10;;;;;;;6.63;1.90;;;;;;;8.16;72.95;99687.34;4976219;28;20113;-76
2023/01/13 11:21:53;;;;;;;9.52;1.90;;;;;;;8.23;72.56;99676.81;4979657;28;20108;-77
2023/01/13 11:24:41;;;;;;;11.13;2.80;;;;;;;8.28;72.45;99668.94;4983914;28;20042;-78
2023/01/13 11:27:19;;;;;;;4.38;1.17;;;;;;;8.28;73.00;99680.22;4977346;28;20038;-75
2023/01/13 11:30:08;;;;;;;4.32;1.67;;;;;;;8.28;72.98;99676.75;4980243;28;20050;-76
2023/01/13 11:32:44;;;;;;;8.82;1.98;;;;;;;8.34;71.61;99674.03;4965173;28;20041;-77
2023/01/13 11:35:20;;;;;;;8.02;2.03;;;;;;;8.41;71.44;99677.44;4980991;28;20046;-77
2023/01/13 11:38:00;;;;;;;7.38;2.30;;;;;;;8.28;71.92;99627.22;4991337;28;20057;-75
2023/01/13 11:40:53;;;;;;;7.95;1.75;;;;;;;8.30;71.71;99667.16;4979267;28;20046;-78
2023/01/13 11:43:42;;;;;;;8.00;2.53;;;;;;;8.40;70.77;99688.75;4968203;28;20073;-79
2023/01/13 11:46:09;;;;;;;7.85;1.98;;;;;;;8.42;70.57;99674.78;4980017;28;20127;-76
2023/01/13 11:48:41;;;;;;;6.97;2.13;;;;;;;8.40;71.21;99689.59;4975985;28;20122;-79
2023/01/13 11:51:13;;;;;;;8.02;1.50;;;;;;;8.40;71.73;99689.59;4977667;28;20516;-81
2023/01/13 11:54:17;;;;;;;11.02;1.65;;;;;;;8.35;72.31;99687.97;4982209;28;21253;-78
2023/01/13 11:57:19;;;;;;;4.78;1.67;;;;;;;8.30;72.85;99676.72;4981334;28;20042;-79
2023/01/13 12:00:14;;;;;;;9.82;3.60;;;;;;;8.22;73.51;99677.69;4985488;28;20065;-78
2023/01/13 12:03:16;;;;;;;10.23;2.35;;;;;;;8.19;73.98;99682.97;5000377;28;20053;-76
2023/01/13 12:06:01;;;;;;;7.93;2.22;;;;;;;8.17;74.33;99679.50;4964687;28;20089;-80
2023/01/13 12:09:20;;;;;;;7.07;1.92;;;;;;;8.17;74.05;99663.88;4960946;28;20042;-79
2023/01/13 12:12:31;;;;;;;4.68;1.10;;;;;;;8.19;74.23;99687.34;4984201;28;20042;-77
2023/01/13 12:15:23;;;;;;;4.57;1.48;;;;;;;8.19;74.18;99688.19;4981108;28;20256;-76
2023/01/13 12:18:31;;;;;;;6.38;1.48;;;;;;;8.20;74.34;99666.44;4989031;28;20053;-76
2023/01/13 12:21:30;;;;;;;5.47;2.55;;;;;;;8.22;73.93;99676.84;4971169;28;20171;-77
2023/01/13 12:24:19;;;;;;;5.30;1.75;;;;;;;8.28;74.20;99672.41;4977446;28;20038;-77
2023/01/13 12:26:58;;;;;;;8.13;2.40;;;;;;;8.37;73.85;99687.03;4989759;28;20137;-77
2023/01/13 12:29:33;;;;;;;13.00;2.53;;;;;;;8.39;73.76;99695.69;4986481;28;20038;-77
2023/01/13 12:32:05;;;;;;;9.77;2.63;;;;;;;8.30;74.39;99680.19;4972875;28;20081;-82
2023/01/13 12:35:02;;;;;;;15.20;2.78;;;;;;;8.22;75.38;99682.91;4990001;28;20092;-77
2023/01/13 12:37:58;;;;;;;7.80;1.88;;;;;;;8.23;75.69;99684.63;4983033;28;20104;-80
2023/01/13 12:40:46;;;;;;;9.00;2.70;;;;;;;8.18;75.30;99691.66;4978617;28;20039;-79
2023/01/13 12:46:21;;;;;;;12.65;2.25;;;;;;;8.14;76.20;99681.31;4975017;28;20059;-76
2023/01/13 12:48:55;;;;;;;7.05;2.03;;;;;;;8.11;76.14;99687.44;4976189;28;20047;-77
2023/01/13 12:51:34;;;;;;;7.35;1.73;;;;;;;8.08;76.30;99687.47;4974033;28;20050;-78
2023/01/13 12:54:23;;;;;;;7.28;1.98;;;;;;;8.07;76.50;99683.13;4979842;28;20050;-80
2023/01/13 12:56:49;;;;;;;11.75;2.75;;;;;;;8.11;76.49;99680.47;4958350;28;20058;-75
2023/01/13 12:59:19;;;;;;;7.72;1.88;;;;;;;8.17;76.46;99686.47;4983689;28;20486;-76
2023/01/13 13:01:51;;;;;;;8.63;1.98;;;;;;;8.23;76.04;99681.19;4981054;28;20042;-76
2023/01/13 13:04:53;;;;;;;9.60;2.22;;;;;;;8.30;75.77;99663.69;4988927;28;20039;-76
2023/01/13 13:07:25;;;;;;;10.70;2.83;;;;;;;8.41;76.07;99680.03;4995154;28;20050;-77